sensor_id;sensor_type;location;lat;lon;timestamp;pressure;altitude;pressure_sealevel;temperature;humidity
75401;BME280;63974;47.538;18.972;2023-04-15T00:00:37;99204.91;;;6.76;85.93
75401;BME280;63974;47.538;18.972;2023-04-15T00:03:39;99206.56;;;6.69;85.65
75401;BME280;63974;47.538;18.972;2023-04-15T00:06:49;99203.72;;;6.56;85.99
75401;BME280;63974;47.538;18.972;2023-04-15T00:09:52;99202.94;;;6.56;86.06
75401;BME280;63974;47.538;18.972;2023-04-15T00:12:57;99200.19;;;6.57;86.65
75401;BME280;63974;47.538;18.972;2023-04-15T00:16:00;99201.69;;;6.52;86.15
75401;BME280;63974;47.538;18.972;2023-04-15T00:19:03;99200.56;;;6.47;86.33
75401;BME280;63974;47.538;18.972;2023-04-15T00:22:06;99208.47;;;6.45;86.26
75401;BME280;63974;47.538;18.972;2023-04-15T00:25:09;99194.63;;;6.38;86.72
75401;BME280;63974;47.538;18.972;2023-04-15T00:28:12;99202.25;;;6.32;86.11
75401;BME280;63974;47.538;18.972;2023-04-15T00:31:17;99192.47;;;6.27;86.65
75401;BME280;63974;47.538;18.972;2023-04-15T00:34:20;99196.66;;;6.20;86.66
75401;BME280;63974;47.538;18.972;2023-04-15T00:37:23;99193.78;;;6.15;86.78
75401;BME280;63974;47.538;18.972;2023-04-15T00:40:26;99198.13;;;6.15;86.76
75401;BME280;63974;47.538;18.972;2023-04-15T00:43:29;99200.22;;;6.11;87.12
75401;BME280;63974;47.538;18.972;2023-04-15T00:46:34;99197.84;;;6.10;87.04
75401;BME280;63974;47.538;18.972;2023-04-15T00:49:37;99199.59;;;6.09;87.57
75401;BME280;63974;47.538;18.972;2023-04-15T00:52:40;99206.06;;;6.05;87.03
75401;BME280;63974;47.538;18.972;2023-04-15T00:55:43;99207.03;;;6.04;87.09
75401;BME280;63974;47.538;18.972;2023-04-15T00:58:47;99207.81;;;6.05;87.11
75401;BME280;63974;47.538;18.972;2023-04-15T01:01:50;99206.72;;;5.99;87.48
75401;BME280;63974;47.538;18.972;2023-04-15T01:04:55;99203.22;;;5.92;87.38
75401;BME280;63974;47.538;18.972;2023-04-15T01:07:58;99213.19;;;5.87;87.28
75401;BME280;63974;47.538;18.972;2023-04-15T01:11:01;99215.13;;;5.85;87.24
75401;BME280;63974;47.538;18.972;2023-04-15T01:14:05;99218.50;;;5.78;87.07
75401;BME280;63974;47.538;18.972;2023-04-15T01:17:08;99224.63;;;5.77;86.96
75401;BME280;63974;47.538;18.972;2023-04-15T01:20:11;99228.03;;;5.69;87.12
75401;BME280;63974;47.538;18.972;2023-04-15T01:23:14;99227.53;;;5.66;87.21
75401;BME280;63974;47.538;18.972;2023-04-15T01:26:19;99227.88;;;5.63;87.20
75401;BME280;63974;47.538;18.972;2023-04-15T01:29:22;99221.41;;;5.67;87.59
75401;BME280;63974;47.538;18.972;2023-04-15T01:32:25;99222.84;;;5.77;86.84
75401;BME280;63974;47.538;18.972;2023-04-15T01:35:28;99230.28;;;5.80;86.36
75401;BME280;63974;47.538;18.972;2023-04-15T01:38:32;99230.28;;;5.80;86.66
75401;BME280;63974;47.538;18.972;2023-04-15T01:41:34;99235.91;;;5.76;85.45
75401;BME280;63974;47.538;18.972;2023-04-15T01:44:37;99229.97;;;5.51;85.17
75401;BME280;63974;47.538;18.972;2023-04-15T01:47:40;99231.25;;;5.47;85.37
75401;BME280;63974;47.538;18.972;2023-04-15T01:50:44;99234.00;;;5.54;86.13
75401;BME280;63974;47.538;18.972;2023-04-15T01:53:49;99237.19;;;5.56;86.37
75401;BME280;63974;47.538;18.972;2023-04-15T01:56:52;99236.22;;;5.57;86.68
75401;BME280;63974;47.538;18.972;2023-04-15T01:59:55;99239.63;;;5.57;86.34
75401;BME280;63974;47.538;18.972;2023-04-15T02:02:58;99238.03;;;5.56;86.02
75401;BME280;63974;47.538;18.972;2023-04-15T02:06:01;99235.91;;;5.68;85.83
75401;BME280;63974;47.538;18.972;2023-04-15T02:09:03;99238.47;;;5.68;86.41
75401;BME280;63974;47.538;18.972;2023-04-15T02:12:06;99239.25;;;5.76;86.79
75401;BME280;63974;47.538;18.972;2023-04-15T02:15:09;99237.69;;;5.83;86.56
75401;BME280;63974;47.538;18.972;2023-04-15T02:18:12;99235.09;;;5.91;87.11
75401;BME280;63974;47.538;18.972;2023-04-15T02:21:19;99239.59;;;5.73;86.93
75401;BME280;63974;47.538;18.972;2023-04-15T02:24:21;99234.13;;;5.84;86.68
75401;BME280;63974;47.538;18.972;2023-04-15T02:27:24;99233.16;;;5.93;85.68
75401;BME280;63974;47.538;18.972;2023-04-15T02:30:27;99239.72;;;6.04;85.20
75401;BME280;63974;47.538;18.972;2023-04-15T02:33:30;99238.25;;;6.01;85.77
75401;BME280;63974;47.538;18.972;2023-04-15T02:36:35;99239.03;;;6.18;86.09
75401;BME280;63974;47.538;18.972;2023-04-15T02:39:39;99235.59;;;6.25;85.90
75401;BME280;63974;47.538;18.972;2023-04-15T02:42:43;99237.91;;;6.20;86.35
75401;BME280;63974;47.538;18.972;2023-04-15T02:45:48;99227.94;;;6.09;86.25
75401;BME280;63974;47.538;18.972;2023-04-15T02:48:51;99238.09;;;6.11;86.86
75401;BME280;63974;47.538;18.972;2023-04-15T02:51:57;99236.66;;;6.08;86.89
75401;BME280;63974;47.538;18.972;2023-04-15T02:55:01;99240.34;;;6.06;86.85
75401;BME280;63974;47.538;18.972;2023-04-15T02:58:05;99241.50;;;6.03;87.30
75401;BME280;63974;47.538;18.972;2023-04-15T03:01:08;99243.25;;;6.11;87.48
75401;BME280;63974;47.538;18.972;2023-04-15T03:04:11;99239.00;;;6.26;86.87
75401;BME280;63974;47.538;18.972;2023-04-15T03:07:16;99240.59;;;6.35;86.98
75401;BME280;63974;47.538;18.972;2023-04-15T03:10:20;99238.31;;;6.40;86.59
75401;BME280;63974;47.538;18.972;2023-04-15T03:13:23;99236.34;;;6.42;87.13
75401;BME280;63974;47.538;18.972;2023-04-15T03:16:27;99233.91;;;6.48;87.00
75401;BME280;63974;47.538;18.972;2023-04-15T03:19:32;99237.94;;;6.51;87.12
75401;BME280;63974;47.538;18.972;2023-04-15T03:22:35;99234.03;;;6.54;86.05
75401;BME280;63974;47.538;18.972;2023-04-15T03:25:38;99241.63;;;6.56;86.12
75401;BME280;63974;47.538;18.972;2023-04-15T03:28:42;99244.19;;;6.56;86.02
75401;BME280;63974;47.538;18.972;2023-04-15T03:31:48;99250.00;;;6.50;86.32
75401;BME280;63974;47.538;18.972;2023-04-15T03:34:51;99247.28;;;6.52;86.18
75401;BME280;63974;47.538;18.972;2023-04-15T03:37:54;99243.97;;;6.65;86.20
75401;BME280;63974;47.538;18.972;2023-04-15T03:40:57;99240.41;;;6.66;86.19
75401;BME280;63974;47.538;18.972;2023-04-15T03:43:59;99238.81;;;6.65;86.35
75401;BME280;63974;47.538;18.972;2023-04-15T03:47:02;99237.19;;;6.72;86.25
75401;BME280;63974;47.538;18.972;2023-04-15T03:50:05;99241.47;;;6.57;86.70
75401;BME280;63974;47.538;18.972;2023-04-15T03:53:08;99238.59;;;6.75;86.34
75401;BME280;63974;47.538;18.972;2023-04-15T03:56:11;99229.06;;;6.83;86.16
75401;BME280;63974;47.538;18.972;2023-04-15T03:59:14;99232.41;;;6.84;86.15
75401;BME280;63974;47.538;18.972;2023-04-15T04:02:17;99230.06;;;6.74;86.01
75401;BME280;63974;47.538;18.972;2023-04-15T04:05:20;99233.78;;;6.72;86.18
75401;BME280;63974;47.538;18.972;2023-04-15T04:08:23;99233.66;;;6.65;86.04
75401;BME280;63974;47.538;18.972;2023-04-15T04:11:25;99239.66;;;6.58;86.44
75401;BME280;63974;47.538;18.972;2023-04-15T04:14:29;99243.50;;;6.62;85.87
75401;BME280;63974;47.538;18.972;2023-04-15T04:17:32;99248.72;;;6.54;86.31
75401;BME280;63974;47.538;18.972;2023-04-15T04:20:35;99241.84;;;6.77;85.50
75401;BME280;63974;47.538;18.972;2023-04-15T04:23:38;99246.50;;;6.81;85.04
75401;BME280;63974;47.538;18.972;2023-04-15T04:26:41;99240.72;;;7.02;84.26
75401;BME280;63974;47.538;18.972;2023-04-15T04:29:44;99240.00;;;7.08;83.36
75401;BME280;63974;47.538;18.972;2023-04-15T04:32:49;99256.22;;;7.16;83.22
75401;BME280;63974;47.538;18.972;2023-04-15T04:35:53;99254.91;;;7.43;82.89
75401;BME280;63974;47.538;18.972;2023-04-15T04:38:56;99251.56;;;7.57;82.42
75401;BME280;63974;47.538;18.972;2023-04-15T04:41:59;99251.41;;;7.36;83.66
75401;BME280;63974;47.538;18.972;2023-04-15T04:45:03;99249.28;;;7.62;82.75
75401;BME280;63974;47.538;18.972;2023-04-15T04:48:05;99253.97;;;7.58;82.61
75401;BME280;63974;47.538;18.972;2023-04-15T04:51:10;99262.72;;;7.57;82.92
75401;BME280;63974;47.538;18.972;2023-04-15T04:54:13;99262.09;;;7.55;82.90
75401;BME280;63974;47.538;18.972;2023-04-15T04:57:16;99261.41;;;7.39;83.67
75401;BME280;63974;47.538;18.972;2023-04-15T05:00:18;99260.59;;;7.38;83.43
75401;BME280;63974;47.538;18.972;2023-04-15T05:03:21;99262.56;;;7.36;83.34
75401;BME280;63974;47.538;18.972;2023-04-15T05:06:24;99263.53;;;7.35;83.72
75401;BME280;63974;47.538;18.972;2023-04-15T05:09:27;99275.34;;;7.30;83.63
75401;BME280;63974;47.538;18.972;2023-04-15T05:12:34;99274.41;;;7.23;83.84
75401;BME280;63974;47.538;18.972;2023-04-15T05:15:37;99278.28;;;7.27;84.07
75401;BME280;63974;47.538;18.972;2023-04-15T05:18:42;99281.75;;;7.34;83.67
75401;BME280;63974;47.538;18.972;2023-04-15T05:21:45;99282.59;;;7.34;83.54
75401;BME280;63974;47.538;18.972;2023-04-15T05:24:48;99280.00;;;7.34;83.90
75401;BME280;63974;47.538;18.972;2023-04-15T05:27:51;99273.97;;;7.42;83.63
75401;BME280;63974;47.538;18.972;2023-04-15T05:30:54;99272.19;;;7.42;83.38
75401;BME280;63974;47.538;18.972;2023-04-15T05:33:57;99277.75;;;7.54;83.08
75401;BME280;63974;47.538;18.972;2023-04-15T05:37:00;99289.78;;;7.61;82.56
75401;BME280;63974;47.538;18.972;2023-04-15T05:40:04;99285.97;;;7.57;82.70
75401;BME280;63974;47.538;18.972;2023-04-15T05:43:07;99285.66;;;7.75;82.21
75401;BME280;63974;47.538;18.972;2023-04-15T05:46:10;99286.53;;;7.82;81.76
75401;BME280;63974;47.538;18.972;2023-04-15T05:49:12;99284.59;;;7.98;81.03
75401;BME280;63974;47.538;18.972;2023-04-15T05:52:15;99290.31;;;8.08;81.09
75401;BME280;63974;47.538;18.972;2023-04-15T05:55:18;99293.13;;;8.21;80.94
75401;BME280;63974;47.538;18.972;2023-04-15T05:58:21;99286.53;;;8.19;81.03
75401;BME280;63974;47.538;18.972;2023-04-15T06:01:24;99296.41;;;8.15;81.56
75401;BME280;63974;47.538;18.972;2023-04-15T06:04:27;99299.22;;;8.28;81.49
75401;BME280;63974;47.538;18.972;2023-04-15T06:07:30;99301.84;;;8.49;80.46
75401;BME280;63974;47.538;18.972;2023-04-15T06:10:34;99303.38;;;8.73;79.56
75401;BME280;63974;47.538;18.972;2023-04-15T06:13:38;99307.41;;;8.96;78.81
75401;BME280;63974;47.538;18.972;2023-04-15T06:16:41;99310.84;;;9.17;79.72
75401;BME280;63974;47.538;18.972;2023-04-15T06:19:44;99304.59;;;9.12;78.28
75401;BME280;63974;47.538;18.972;2023-04-15T06:22:47;99306.53;;;9.24;78.95
75401;BME280;63974;47.538;18.972;2023-04-15T06:25:49;99318.59;;;9.17;79.13
75401;BME280;63974;47.538;18.972;2023-04-15T06:28:53;99318.84;;;9.01;79.62
75401;BME280;63974;47.538;18.972;2023-04-15T06:31:56;99322.19;;;8.81;80.46
75401;BME280;63974;47.538;18.972;2023-04-15T06:34:58;99315.31;;;8.74;81.05
75401;BME280;63974;47.538;18.972;2023-04-15T06:38:01;99323.78;;;8.96;79.51
75401;BME280;63974;47.538;18.972;2023-04-15T06:41:04;99315.66;;;9.20;79.64
75401;BME280;63974;47.538;18.972;2023-04-15T06:44:07;99309.75;;;9.47;77.38
75401;BME280;63974;47.538;18.972;2023-04-15T06:47:10;99298.13;;;9.85;76.02
75401;BME280;63974;47.538;18.972;2023-04-15T06:50:14;99293.09;;;10.32;74.92
75401;BME280;63974;47.538;18.972;2023-04-15T06:53:17;99295.25;;;10.63;73.39
75401;BME280;63974;47.538;18.972;2023-04-15T06:56:20;99303.09;;;10.76;73.79
75401;BME280;63974;47.538;18.972;2023-04-15T06:59:24;99306.44;;;10.70;73.90
75401;BME280;63974;47.538;18.972;2023-04-15T07:02:28;99310.97;;;10.55;74.25
75401;BME280;63974;47.538;18.972;2023-04-15T07:05:31;99313.88;;;10.39;75.28
75401;BME280;63974;47.538;18.972;2023-04-15T07:08:35;99311.88;;;10.41;75.79
75401;BME280;63974;47.538;18.972;2023-04-15T07:11:38;99315.44;;;10.67;74.12
75401;BME280;63974;47.538;18.972;2023-04-15T07:14:41;99307.91;;;10.85;72.94
75401;BME280;63974;47.538;18.972;2023-04-15T07:17:44;99326.56;;;11.08;73.16
75401;BME280;63974;47.538;18.972;2023-04-15T07:20:47;99325.94;;;11.00;73.61
75401;BME280;63974;47.538;18.972;2023-04-15T07:23:50;99322.59;;;10.59;74.01
75401;BME280;63974;47.538;18.972;2023-04-15T07:26:53;99331.31;;;10.51;74.87
75401;BME280;63974;47.538;18.972;2023-04-15T07:30:02;99338.41;;;10.70;74.12
75401;BME280;63974;47.538;18.972;2023-04-15T07:33:05;99338.50;;;10.56;73.64
75401;BME280;63974;47.538;18.972;2023-04-15T07:36:08;99340.25;;;10.42;74.32
75401;BME280;63974;47.538;18.972;2023-04-15T07:39:12;99339.50;;;10.55;73.11
75401;BME280;63974;47.538;18.972;2023-04-15T07:42:15;99342.19;;;10.68;72.80
75401;BME280;63974;47.538;18.972;2023-04-15T07:45:18;99345.97;;;10.65;72.76
75401;BME280;63974;47.538;18.972;2023-04-15T07:48:21;99350.66;;;10.83;72.11
75401;BME280;63974;47.538;18.972;2023-04-15T07:51:25;99350.28;;;10.92;72.31
75401;BME280;63974;47.538;18.972;2023-04-15T07:54:28;99359.84;;;10.85;71.90
75401;BME280;63974;47.538;18.972;2023-04-15T07:57:30;99362.16;;;11.07;71.99
75401;BME280;63974;47.538;18.972;2023-04-15T08:00:33;99361.13;;;11.02;70.90
75401;BME280;63974;47.538;18.972;2023-04-15T08:03:36;99355.03;;;10.82;71.23
75401;BME280;63974;47.538;18.972;2023-04-15T08:06:39;99368.69;;;10.97;70.95
75401;BME280;63974;47.538;18.972;2023-04-15T08:09:42;99381.69;;;11.03;71.34
75401;BME280;63974;47.538;18.972;2023-04-15T08:12:44;99382.91;;;11.01;70.78
75401;BME280;63974;47.538;18.972;2023-04-15T08:16:12;99373.59;;;10.79;72.20
75401;BME280;63974;47.538;18.972;2023-04-15T08:19:16;99375.91;;;11.02;71.45
75401;BME280;63974;47.538;18.972;2023-04-15T08:22:19;99372.00;;;10.78;71.77
75401;BME280;63974;47.538;18.972;2023-04-15T08:25:23;99379.47;;;10.94;70.67
75401;BME280;63974;47.538;18.972;2023-04-15T08:28:26;99373.97;;;11.16;68.42
75401;BME280;63974;47.538;18.972;2023-04-15T08:31:29;99381.47;;;11.45;67.87
75401;BME280;63974;47.538;18.972;2023-04-15T08:34:32;99387.34;;;11.13;70.28
75401;BME280;63974;47.538;18.972;2023-04-15T08:37:36;99374.84;;;10.90;70.35
75401;BME280;63974;47.538;18.972;2023-04-15T08:40:43;99385.81;;;10.85;70.37
75401;BME280;63974;47.538;18.972;2023-04-15T08:43:56;99394.09;;;11.02;70.78
75401;BME280;63974;47.538;18.972;2023-04-15T08:47:02;99389.63;;;10.83;70.38
75401;BME280;63974;47.538;18.972;2023-04-15T08:50:07;99398.19;;;10.83;70.69
75401;BME280;63974;47.538;18.972;2023-04-15T08:53:11;99402.88;;;11.01;69.87
75401;BME280;63974;47.538;18.972;2023-04-15T08:56:14;99401.03;;;11.41;68.02
75401;BME280;63974;47.538;18.972;2023-04-15T08:59:20;99409.47;;;11.50;67.32
75401;BME280;63974;47.538;18.972;2023-04-15T09:02:24;99402.94;;;11.67;68.03
75401;BME280;63974;47.538;18.972;2023-04-15T09:05:31;99414.34;;;11.72;67.39
75401;BME280;63974;47.538;18.972;2023-04-15T09:08:35;99412.63;;;12.25;68.09
75401;BME280;63974;47.538;18.972;2023-04-15T09:11:37;99411.19;;;12.29;67.23
75401;BME280;63974;47.538;18.972;2023-04-15T09:14:42;99406.97;;;12.47;66.88
75401;BME280;63974;47.538;18.972;2023-04-15T09:17:45;99416.56;;;12.73;65.56
75401;BME280;63974;47.538;18.972;2023-04-15T09:20:52;99412.19;;;12.47;66.74
75401;BME280;63974;47.538;18.972;2023-04-15T09:23:59;99416.59;;;12.47;65.76
75401;BME280;63974;47.538;18.972;2023-04-15T09:27:03;99428.38;;;11.91;67.56
75401;BME280;63974;47.538;18.972;2023-04-15T09:30:07;99427.41;;;11.98;68.35
75401;BME280;63974;47.538;18.972;2023-04-15T09:33:13;99427.38;;;11.92;66.81
75401;BME280;63974;47.538;18.972;2023-04-15T09:36:16;99437.16;;;11.77;66.38
75401;BME280;63974;47.538;18.972;2023-04-15T09:39:19;99431.81;;;12.04;67.23
75401;BME280;63974;47.538;18.972;2023-04-15T09:42:22;99430.59;;;11.87;67.47
75401;BME280;63974;47.538;18.972;2023-04-15T09:45:26;99432.00;;;11.90;66.94
75401;BME280;63974;47.538;18.972;2023-04-15T09:48:31;99431.19;;;12.02;66.63
75401;BME280;63974;47.538;18.972;2023-04-15T09:51:34;99435.97;;;11.79;67.99
75401;BME280;63974;47.538;18.972;2023-04-15T09:54:37;99429.97;;;11.79;68.60
75401;BME280;63974;47.538;18.972;2023-04-15T09:57:40;99439.13;;;11.62;69.50
75401;BME280;63974;47.538;18.972;2023-04-15T10:00:46;99433.13;;;11.61;69.06
75401;BME280;63974;47.538;18.972;2023-04-15T10:03:49;99432.19;;;11.95;68.04
75401;BME280;63974;47.538;18.972;2023-04-15T10:06:53;99431.63;;;12.25;65.80
75401;BME280;63974;47.538;18.972;2023-04-15T10:09:58;99433.97;;;12.85;65.34
75401;BME280;63974;47.538;18.972;2023-04-15T10:13:01;99431.81;;;13.45;62.84
75401;BME280;63974;47.538;18.972;2023-04-15T10:19:08;99425.75;;;14.13;57.94
75401;BME280;63974;47.538;18.972;2023-04-15T10:22:13;99418.69;;;14.45;56.69
75401;BME280;63974;47.538;18.972;2023-04-15T10:25:17;99415.66;;;14.90;56.26
75401;BME280;63974;47.538;18.972;2023-04-15T10:28:20;99410.47;;;15.20;54.00
75401;BME280;63974;47.538;18.972;2023-04-15T10:31:27;99409.03;;;15.06;55.77
75401;BME280;63974;47.538;18.972;2023-04-15T10:34:31;99409.56;;;14.36;56.07
75401;BME280;63974;47.538;18.972;2023-04-15T10:37:35;99415.03;;;14.28;56.66
75401;BME280;63974;47.538;18.972;2023-04-15T10:40:39;99403.84;;;14.45;56.03
75401;BME280;63974;47.538;18.972;2023-04-15T10:44:02;99407.34;;;14.75;56.22
75401;BME280;63974;47.538;18.972;2023-04-15T10:47:10;99403.63;;;14.22;54.68
75401;BME280;63974;47.538;18.972;2023-04-15T10:50:14;99407.06;;;13.54;57.65
75401;BME280;63974;47.538;18.972;2023-04-15T10:53:26;99410.06;;;13.58;57.36
75401;BME280;63974;47.538;18.972;2023-04-15T10:56:29;99409.19;;;14.01;57.53
75401;BME280;63974;47.538;18.972;2023-04-15T10:59:37;99411.31;;;14.17;57.41
75401;BME280;63974;47.538;18.972;2023-04-15T11:02:51;99415.69;;;14.23;55.33
75401;BME280;63974;47.538;18.972;2023-04-15T11:05:55;99419.53;;;14.14;56.40
75401;BME280;63974;47.538;18.972;2023-04-15T11:08:58;99419.19;;;14.04;57.23
75401;BME280;63974;47.538;18.972;2023-04-15T11:12:08;99420.38;;;14.08;56.42
75401;BME280;63974;47.538;18.972;2023-04-15T11:15:36;99412.06;;;14.24;55.76
75401;BME280;63974;47.538;18.972;2023-04-15T11:18:40;99406.47;;;14.45;55.21
75401;BME280;63974;47.538;18.972;2023-04-15T11:21:43;99413.38;;;14.33;53.81
75401;BME280;63974;47.538;18.972;2023-04-15T11:24:46;99410.13;;;14.38;53.55
75401;BME280;63974;47.538;18.972;2023-04-15T11:27:52;99421.28;;;14.27;55.07
75401;BME280;63974;47.538;18.972;2023-04-15T11:30:56;99406.94;;;14.05;55.79
75401;BME280;63974;47.538;18.972;2023-04-15T11:34:01;99424.00;;;14.07;55.30
75401;BME280;63974;47.538;18.972;2023-04-15T11:37:05;99414.59;;;14.06;55.61
75401;BME280;63974;47.538;18.972;2023-04-15T11:40:11;99412.47;;;14.21;55.38
75401;BME280;63974;47.538;18.972;2023-04-15T11:43:19;99405.31;;;14.35;55.77
75401;BME280;63974;47.538;18.972;2023-04-15T11:46:30;99401.53;;;14.06;55.87
75401;BME280;63974;47.538;18.972;2023-04-15T11:49:33;99411.28;;;14.24;55.62
75401;BME280;63974;47.538;18.972;2023-04-15T11:52:39;99409.97;;;14.57;52.96
75401;BME280;63974;47.538;18.972;2023-04-15T11:55:43;99410.00;;;14.93;51.80
75401;BME280;63974;47.538;18.972;2023-04-15T11:58:47;99413.44;;;15.59;50.01
75401;BME280;63974;47.538;18.972;2023-04-15T12:01:52;99410.78;;;15.12;50.00
75401;BME280;63974;47.538;18.972;2023-04-15T12:05:03;99408.03;;;14.89;52.38
75401;BME280;63974;47.538;18.972;2023-04-15T12:08:06;99412.00;;;14.73;52.74
75401;BME280;63974;47.538;18.972;2023-04-15T12:11:09;99426.59;;;14.38;53.55
75401;BME280;63974;47.538;18.972;2023-04-15T12:14:25;99411.69;;;14.45;53.87
75401;BME280;63974;47.538;18.972;2023-04-15T12:17:29;99409.00;;;14.52;53.41
75401;BME280;63974;47.538;18.972;2023-04-15T12:20:53;99412.47;;;14.46;53.68
75401;BME280;63974;47.538;18.972;2023-04-15T12:23:57;99416.00;;;14.33;52.76
75401;BME280;63974;47.538;18.972;2023-04-15T12:27:05;99408.50;;;14.43;52.75
75401;BME280;63974;47.538;18.972;2023-04-15T12:30:09;99412.44;;;14.70;51.65
75401;BME280;63974;47.538;18.972;2023-04-15T12:33:13;99410.91;;;14.63;51.16
75401;BME280;63974;47.538;18.972;2023-04-15T12:36:16;99415.81;;;14.95;52.72
75401;BME280;63974;47.538;18.972;2023-04-15T12:39:26;99414.28;;;15.06;51.28
75401;BME280;63974;47.538;18.972;2023-04-15T12:42:32;99416.69;;;15.07;51.33
75401;BME280;63974;47.538;18.972;2023-04-15T12:45:34;99432.47;;;14.76;51.40
75401;BME280;63974;47.538;18.972;2023-04-15T12:48:39;99429.19;;;15.05;51.36
75401;BME280;63974;47.538;18.972;2023-04-15T12:51:42;99428.28;;;15.11;50.69
75401;BME280;63974;47.538;18.972;2023-04-15T12:54:44;99421.69;;;14.91;51.29
75401;BME280;63974;47.538;18.972;2023-04-15T12:57:47;99428.44;;;14.80;52.23
75401;BME280;63974;47.538;18.972;2023-04-15T13:00:50;99430.75;;;14.46;53.75
75401;BME280;63974;47.538;18.972;2023-04-15T13:03:53;99424.28;;;14.30;52.61
75401;BME280;63974;47.538;18.972;2023-04-15T13:06:56;99420.00;;;14.78;52.93
75401;BME280;63974;47.538;18.972;2023-04-15T13:09:59;99414.09;;;14.65;51.73
75401;BME280;63974;47.538;18.972;2023-04-15T13:13:02;99414.41;;;14.75;52.23
75401;BME280;63974;47.538;18.972;2023-04-15T13:16:05;99427.41;;;15.53;50.56
75401;BME280;63974;47.538;18.972;2023-04-15T13:19:08;99418.41;;;15.78;50.52
75401;BME280;63974;47.538;18.972;2023-04-15T13:22:11;99419.59;;;15.94;49.04
75401;BME280;63974;47.538;18.972;2023-04-15T13:25:14;99428.56;;;15.57;49.64
75401;BME280;63974;47.538;18.972;2023-04-15T13:28:17;99425.50;;;15.60;49.08
75401;BME280;63974;47.538;18.972;2023-04-15T13:31:19;99427.31;;;15.30;48.69
75401;BME280;63974;47.538;18.972;2023-04-15T13:34:23;99428.00;;;15.96;47.30
75401;BME280;63974;47.538;18.972;2023-04-15T13:37:26;99422.56;;;15.97;47.45
75401;BME280;63974;47.538;18.972;2023-04-15T13:40:30;99424.22;;;15.51;48.18
75401;BME280;63974;47.538;18.972;2023-04-15T13:43:33;99421.25;;;15.77;47.79
75401;BME280;63974;47.538;18.972;2023-04-15T13:46:36;99420.22;;;15.78;46.95
75401;BME280;63974;47.538;18.972;2023-04-15T13:49:41;99416.19;;;16.05;46.37
75401;BME280;63974;47.538;18.972;2023-04-15T13:52:44;99418.38;;;16.08;45.65
75401;BME280;63974;47.538;18.972;2023-04-15T13:55:48;99428.81;;;15.96;46.01
75401;BME280;63974;47.538;18.972;2023-04-15T13:58:51;99419.91;;;15.86;46.06
75401;BME280;63974;47.538;18.972;2023-04-15T14:01:56;99421.13;;;16.13;45.96
75401;BME280;63974;47.538;18.972;2023-04-15T14:04:59;99428.16;;;16.12;45.15
75401;BME280;63974;47.538;18.972;2023-04-15T14:08:02;99430.31;;;16.56;45.32
75401;BME280;63974;47.538;18.972;2023-04-15T14:11:05;99430.41;;;16.61;45.64
75401;BME280;63974;47.538;18.972;2023-04-15T14:14:08;99433.59;;;16.40;46.02
75401;BME280;63974;47.538;18.972;2023-04-15T14:17:10;99434.34;;;16.18;44.58
75401;BME280;63974;47.538;18.972;2023-04-15T14:20:13;99432.28;;;16.20;45.29
75401;BME280;63974;47.538;18.972;2023-04-15T14:23:18;99432.16;;;15.74;45.65
75401;BME280;63974;47.538;18.972;2023-04-15T14:26:21;99428.69;;;16.44;44.56
75401;BME280;63974;47.538;18.972;2023-04-15T14:29:24;99427.25;;;16.07;44.48
75401;BME280;63974;47.538;18.972;2023-04-15T14:32:27;99424.84;;;16.69;44.54
75401;BME280;63974;47.538;18.972;2023-04-15T14:35:30;99424.94;;;16.86;44.84
75401;BME280;63974;47.538;18.972;2023-04-15T14:38:34;99438.19;;;16.79;44.26
75401;BME280;63974;47.538;18.972;2023-04-15T14:41:41;99430.84;;;16.93;44.93
75401;BME280;63974;47.538;18.972;2023-04-15T14:44:44;99442.31;;;17.77;43.04
75401;BME280;63974;47.538;18.972;2023-04-15T14:47:47;99438.22;;;17.19;42.71
75401;BME280;63974;47.538;18.972;2023-04-15T14:50:51;99448.53;;;16.51;44.22
75401;BME280;63974;47.538;18.972;2023-04-15T14:53:54;99447.09;;;16.26;45.41
75401;BME280;63974;47.538;18.972;2023-04-15T14:56:57;99449.69;;;16.14;45.97
75401;BME280;63974;47.538;18.972;2023-04-15T15:00:00;99447.97;;;15.50;46.83
75401;BME280;63974;47.538;18.972;2023-04-15T15:03:03;99450.31;;;16.28;45.77
75401;BME280;63974;47.538;18.972;2023-04-15T15:06:15;99444.19;;;16.45;45.39
75401;BME280;63974;47.538;18.972;2023-04-15T15:09:18;99444.66;;;16.54;44.97
75401;BME280;63974;47.538;18.972;2023-04-15T15:12:23;99450.91;;;16.41;45.16
75401;BME280;63974;47.538;18.972;2023-04-15T15:15:27;99449.88;;;16.01;45.57
75401;BME280;63974;47.538;18.972;2023-04-15T15:18:30;99451.72;;;16.01;46.46
75401;BME280;63974;47.538;18.972;2023-04-15T15:21:33;99458.69;;;15.77;45.85
75401;BME280;63974;47.538;18.972;2023-04-15T15:24:36;99458.84;;;15.65;46.60
75401;BME280;63974;47.538;18.972;2023-04-15T15:27:39;99455.63;;;15.80;46.46
75401;BME280;63974;47.538;18.972;2023-04-15T15:30:42;99455.53;;;15.58;47.01
75401;BME280;63974;47.538;18.972;2023-04-15T15:33:45;99453.06;;;15.45;47.05
75401;BME280;63974;47.538;18.972;2023-04-15T15:36:48;99455.00;;;15.13;48.21
75401;BME280;63974;47.538;18.972;2023-04-15T15:39:51;99449.38;;;15.34;48.43
75401;BME280;63974;47.538;18.972;2023-04-15T15:42:54;99453.72;;;15.22;50.40
75401;BME280;63974;47.538;18.972;2023-04-15T15:45:57;99457.91;;;15.23;49.44
75401;BME280;63974;47.538;18.972;2023-04-15T15:49:01;99462.84;;;14.95;49.66
75401;BME280;63974;47.538;18.972;2023-04-15T15:52:05;99460.81;;;14.79;49.52
75401;BME280;63974;47.538;18.972;2023-04-15T15:55:08;99481.34;;;14.76;49.75
75401;BME280;63974;47.538;18.972;2023-04-15T15:58:11;99477.59;;;14.65;50.48
75401;BME280;63974;47.538;18.972;2023-04-15T16:01:13;99475.53;;;14.49;50.42
75401;BME280;63974;47.538;18.972;2023-04-15T16:04:16;99474.69;;;14.55;51.72
75401;BME280;63974;47.538;18.972;2023-04-15T16:07:20;99485.59;;;14.46;51.06
75401;BME280;63974;47.538;18.972;2023-04-15T16:10:22;99483.13;;;14.26;51.93